sensor_id;sensor_type;location;lat;lon;timestamp;P1;durP1;ratioP1;P2;durP2;ratioP2
71665;SDS011;59503;53.486;10.196;2022-12-11T00:00:10;20.92;;;7.53;;
71665;SDS011;59503;53.486;10.196;2022-12-11T00:02:36;21.45;;;8.68;;
71665;SDS011;59503;53.486;10.196;2022-12-11T00:05:01;21.23;;;8.07;;
71665;SDS011;59503;53.486;10.196;2022-12-11T00:07:27;18.90;;;7.60;;
71665;SDS011;59503;53.486;10.196;2022-12-11T00:09:52;19.20;;;7.60;;
71665;SDS011;59503;53.486;10.196;2022-12-11T00:12:18;18.53;;;7.30;;
71665;SDS011;59503;53.486;10.196;2022-12-11T00:14:43;16.80;;;6.90;;
71665;SDS011;59503;53.486;10.196;2022-12-11T00:17:09;18.17;;;7.00;;
71665;SDS011;59503;53.486;10.196;2022-12-11T00:19:34;18.47;;;7.23;;
71665;SDS011;59503;53.486;10.196;2022-12-11T00:21:59;19.80;;;7.20;;
71665;SDS011;59503;53.486;10.196;2022-12-11T00:24:25;16.27;;;6.50;;
71665;SDS011;59503;53.486;10.196;2022-12-11T00:26:50;20.20;;;7.68;;
71665;SDS011;59503;53.486;10.196;2022-12-11T00:29:16;18.67;;;7.63;;
71665;SDS011;59503;53.486;10.196;2022-12-11T00:31:41;17.10;;;7.90;;
71665;SDS011;59503;53.486;10.196;2022-12-11T00:34:07;19.23;;;7.20;;
71665;SDS011;59503;53.486;10.196;2022-12-11T00:36:33;21.67;;;7.97;;
71665;SDS011;59503;53.486;10.196;2022-12-11T00:38:59;19.60;;;8.13;;
71665;SDS011;59503;53.486;10.196;2022-12-11T00:41:26;18.45;;;8.05;;
71665;SDS011;59503;53.486;10.196;2022-12-11T00:43:51;17.60;;;7.28;;
71665;SDS011;59503;53.486;10.196;2022-12-11T00:46:17;19.70;;;7.27;;
71665;SDS011;59503;53.486;10.196;2022-12-11T00:48:42;20.27;;;6.57;;
71665;SDS011;59503;53.486;10.196;2022-12-11T00:51:08;18.77;;;6.20;;
71665;SDS011;59503;53.486;10.196;2022-12-11T00:53:34;22.80;;;6.90;;
71665;SDS011;59503;53.486;10.196;2022-12-11T00:56:01;18.95;;;6.05;;
71665;SDS011;59503;53.486;10.196;2022-12-11T00:58:33;19.75;;;6.30;;
71665;SDS011;59503;53.486;10.196;2022-12-11T01:01:05;18.60;;;7.10;;
71665;SDS011;59503;53.486;10.196;2022-12-11T01:03:35;17.17;;;6.57;;
71665;SDS011;59503;53.486;10.196;2022-12-11T01:06:01;20.27;;;6.80;;
71665;SDS011;59503;53.486;10.196;2022-12-11T01:08:28;18.37;;;5.67;;
71665;SDS011;59503;53.486;10.196;2022-12-11T01:11:00;19.77;;;6.30;;
71665;SDS011;59503;53.486;10.196;2022-12-11T01:13:27;16.10;;;6.18;;
71665;SDS011;59503;53.486;10.196;2022-12-11T01:15:52;21.10;;;6.77;;
71665;SDS011;59503;53.486;10.196;2022-12-11T01:18:18;20.40;;;7.00;;
71665;SDS011;59503;53.486;10.196;2022-12-11T01:20:43;20.67;;;7.23;;
71665;SDS011;59503;53.486;10.196;2022-12-11T01:23:09;16.30;;;6.47;;
71665;SDS011;59503;53.486;10.196;2022-12-11T01:25:37;16.45;;;6.28;;
71665;SDS011;59503;53.486;10.196;2022-12-11T01:28:03;17.45;;;7.30;;
71665;SDS011;59503;53.486;10.196;2022-12-11T01:30:29;19.67;;;6.77;;
71665;SDS011;59503;53.486;10.196;2022-12-11T01:32:55;19.55;;;6.55;;
71665;SDS011;59503;53.486;10.196;2022-12-11T01:35:21;17.83;;;7.00;;
71665;SDS011;59503;53.486;10.196;2022-12-11T01:37:47;17.97;;;6.63;;
71665;SDS011;59503;53.486;10.196;2022-12-11T01:40:13;18.35;;;6.85;;
71665;SDS011;59503;53.486;10.196;2022-12-11T01:42:40;18.90;;;6.43;;
71665;SDS011;59503;53.486;10.196;2022-12-11T01:50:44;17.63;;;5.93;;
71665;SDS011;59503;53.486;10.196;2022-12-11T01:53:28;21.23;;;7.35;;
71665;SDS011;59503;53.486;10.196;2022-12-11T01:55:58;18.88;;;5.65;;
71665;SDS011;59503;53.486;10.196;2022-12-11T01:58:25;17.70;;;6.83;;
71665;SDS011;59503;53.486;10.196;2022-12-11T02:00:56;16.98;;;6.75;;
71665;SDS011;59503;53.486;10.196;2022-12-11T02:03:22;19.55;;;6.15;;
71665;SDS011;59503;53.486;10.196;2022-12-11T02:05:48;20.17;;;6.57;;
71665;SDS011;59503;53.486;10.196;2022-12-11T02:08:13;19.05;;;7.25;;
71665;SDS011;59503;53.486;10.196;2022-12-11T02:10:46;18.77;;;7.40;;
71665;SDS011;59503;53.486;10.196;2022-12-11T02:13:43;19.05;;;6.70;;
71665;SDS011;59503;53.486;10.196;2022-12-11T02:16:21;24.20;;;6.93;;
71665;SDS011;59503;53.486;10.196;2022-12-11T02:19:01;20.20;;;6.88;;
71665;SDS011;59503;53.486;10.196;2022-12-11T02:21:43;22.25;;;7.72;;
71665;SDS011;59503;53.486;10.196;2022-12-11T02:24:39;20.73;;;7.00;;
71665;SDS011;59503;53.486;10.196;2022-12-11T02:32:09;19.67;;;7.50;;
71665;SDS011;59503;53.486;10.196;2022-12-11T02:34:41;18.35;;;6.78;;
71665;SDS011;59503;53.486;10.196;2022-12-11T02:37:13;20.50;;;7.68;;
71665;SDS011;59503;53.486;10.196;2022-12-11T02:39:43;20.95;;;7.47;;
71665;SDS011;59503;53.486;10.196;2022-12-11T02:42:11;18.37;;;6.73;;
71665;SDS011;59503;53.486;10.196;2022-12-11T02:44:40;17.60;;;6.63;;
71665;SDS011;59503;53.486;10.196;2022-12-11T02:47:08;19.65;;;8.00;;
71665;SDS011;59503;53.486;10.196;2022-12-11T02:49:36;19.77;;;7.20;;
71665;SDS011;59503;53.486;10.196;2022-12-11T02:52:06;18.45;;;6.88;;
71665;SDS011;59503;53.486;10.196;2022-12-11T02:54:35;19.53;;;6.83;;
71665;SDS011;59503;53.486;10.196;2022-12-11T02:57:02;19.23;;;7.50;;
71665;SDS011;59503;53.486;10.196;2022-12-11T02:59:40;19.27;;;7.38;;
71665;SDS011;59503;53.486;10.196;2022-12-11T03:02:08;17.33;;;7.38;;
71665;SDS011;59503;53.486;10.196;2022-12-11T03:04:36;19.15;;;7.07;;
71665;SDS011;59503;53.486;10.196;2022-12-11T03:07:05;19.40;;;7.57;;
71665;SDS011;59503;53.486;10.196;2022-12-11T03:09:40;20.10;;;6.82;;
71665;SDS011;59503;53.486;10.196;2022-12-11T03:12:08;21.52;;;7.88;;
71665;SDS011;59503;53.486;10.196;2022-12-11T03:14:36;19.20;;;6.85;;
71665;SDS011;59503;53.486;10.196;2022-12-11T03:22:46;21.05;;;7.78;;
71665;SDS011;59503;53.486;10.196;2022-12-11T03:25:19;21.48;;;7.75;;
71665;SDS011;59503;53.486;10.196;2022-12-11T03:27:57;18.88;;;6.72;;
71665;SDS011;59503;53.486;10.196;2022-12-11T03:30:28;17.60;;;5.85;;
71665;SDS011;59503;53.486;10.196;2022-12-11T03:33:05;18.20;;;6.90;;
71665;SDS011;59503;53.486;10.196;2022-12-11T03:35:43;19.17;;;6.85;;
71665;SDS011;59503;53.486;10.196;2022-12-11T03:38:15;17.65;;;6.95;;
71665;SDS011;59503;53.486;10.196;2022-12-11T03:40:45;18.08;;;7.15;;
71665;SDS011;59503;53.486;10.196;2022-12-11T03:43:15;16.55;;;6.72;;
71665;SDS011;59503;53.486;10.196;2022-12-11T03:45:42;18.60;;;7.27;;
71665;SDS011;59503;53.486;10.196;2022-12-11T03:48:10;16.88;;;6.93;;
71665;SDS011;59503;53.486;10.196;2022-12-11T03:50:38;18.05;;;7.60;;
71665;SDS011;59503;53.486;10.196;2022-12-11T03:53:06;17.40;;;7.28;;
71665;SDS011;59503;53.486;10.196;2022-12-11T03:55:32;20.13;;;7.43;;
71665;SDS011;59503;53.486;10.196;2022-12-11T03:58:01;18.30;;;7.07;;
71665;SDS011;59503;53.486;10.196;2022-12-11T04:00:27;16.67;;;6.13;;
71665;SDS011;59503;53.486;10.196;2022-12-11T04:02:53;15.68;;;6.55;;
71665;SDS011;59503;53.486;10.196;2022-12-11T04:05:37;15.80;;;5.90;;
71665;SDS011;59503;53.486;10.196;2022-12-11T04:08:04;17.23;;;6.43;;
71665;SDS011;59503;53.486;10.196;2022-12-11T04:10:29;18.73;;;7.13;;
71665;SDS011;59503;53.486;10.196;2022-12-11T04:12:55;16.60;;;6.17;;
71665;SDS011;59503;53.486;10.196;2022-12-11T04:15:20;18.93;;;7.03;;
71665;SDS011;59503;53.486;10.196;2022-12-11T04:17:46;19.48;;;6.82;;
71665;SDS011;59503;53.486;10.196;2022-12-11T04:20:30;22.73;;;8.47;;
71665;SDS011;59503;53.486;10.196;2022-12-11T04:23:15;19.08;;;6.95;;
71665;SDS011;59503;53.486;10.196;2022-12-11T04:26:10;16.33;;;6.13;;
71665;SDS011;59503;53.486;10.196;2022-12-11T04:28:39;21.85;;;6.78;;
71665;SDS011;59503;53.486;10.196;2022-12-11T04:31:09;20.88;;;8.13;;
71665;SDS011;59503;53.486;10.196;2022-12-11T04:33:39;18.07;;;7.13;;
71665;SDS011;59503;53.486;10.196;2022-12-11T04:36:05;16.75;;;7.10;;
71665;SDS011;59503;53.486;10.196;2022-12-11T04:38:31;18.52;;;7.40;;
71665;SDS011;59503;53.486;10.196;2022-12-11T04:40:57;17.70;;;6.73;;
71665;SDS011;59503;53.486;10.196;2022-12-11T04:43:27;18.10;;;6.88;;
71665;SDS011;59503;53.486;10.196;2022-12-11T04:48:36;16.83;;;6.85;;
71665;SDS011;59503;53.486;10.196;2022-12-11T04:51:02;20.08;;;6.25;;
71665;SDS011;59503;53.486;10.196;2022-12-11T04:53:28;18.63;;;7.10;;
71665;SDS011;59503;53.486;10.196;2022-12-11T04:55:54;19.20;;;6.97;;
71665;SDS011;59503;53.486;10.196;2022-12-11T04:58:20;17.58;;;6.70;;
71665;SDS011;59503;53.486;10.196;2022-12-11T05:00:45;16.75;;;6.80;;
71665;SDS011;59503;53.486;10.196;2022-12-11T05:03:11;18.83;;;7.27;;
71665;SDS011;59503;53.486;10.196;2022-12-11T05:05:37;17.17;;;6.10;;
71665;SDS011;59503;53.486;10.196;2022-12-11T05:08:03;18.75;;;6.93;;
71665;SDS011;59503;53.486;10.196;2022-12-11T05:10:29;16.27;;;6.68;;
71665;SDS011;59503;53.486;10.196;2022-12-11T05:12:54;17.80;;;6.60;;
71665;SDS011;59503;53.486;10.196;2022-12-11T05:15:20;15.93;;;6.47;;
71665;SDS011;59503;53.486;10.196;2022-12-11T05:17:45;15.17;;;6.27;;
71665;SDS011;59503;53.486;10.196;2022-12-11T05:20:11;14.30;;;6.43;;
71665;SDS011;59503;53.486;10.196;2022-12-11T05:22:37;17.73;;;5.95;;
71665;SDS011;59503;53.486;10.196;2022-12-11T05:25:03;19.07;;;7.17;;
71665;SDS011;59503;53.486;10.196;2022-12-11T05:27:29;13.50;;;5.45;;
71665;SDS011;59503;53.486;10.196;2022-12-11T05:29:55;21.50;;;6.60;;
71665;SDS011;59503;53.486;10.196;2022-12-11T05:32:20;16.63;;;6.20;;
71665;SDS011;59503;53.486;10.196;2022-12-11T05:34:46;13.03;;;5.50;;
71665;SDS011;59503;53.486;10.196;2022-12-11T05:37:11;17.40;;;6.23;;
71665;SDS011;59503;53.486;10.196;2022-12-11T05:39:37;15.00;;;6.03;;
71665;SDS011;59503;53.486;10.196;2022-12-11T05:42:02;15.82;;;6.32;;
71665;SDS011;59503;53.486;10.196;2022-12-11T05:44:28;16.73;;;6.30;;
71665;SDS011;59503;53.486;10.196;2022-12-11T05:46:54;17.97;;;6.90;;
71665;SDS011;59503;53.486;10.196;2022-12-11T05:49:20;17.85;;;6.82;;
71665;SDS011;59503;53.486;10.196;2022-12-11T05:51:45;21.77;;;6.90;;
71665;SDS011;59503;53.486;10.196;2022-12-11T05:54:11;17.42;;;6.78;;
71665;SDS011;59503;53.486;10.196;2022-12-11T05:56:37;14.80;;;5.80;;
71665;SDS011;59503;53.486;10.196;2022-12-11T05:59:03;16.50;;;7.23;;
71665;SDS011;59503;53.486;10.196;2022-12-11T06:01:31;17.80;;;6.53;;
71665;SDS011;59503;53.486;10.196;2022-12-11T06:03:59;18.47;;;6.30;;
71665;SDS011;59503;53.486;10.196;2022-12-11T06:06:26;17.80;;;7.05;;
71665;SDS011;59503;53.486;10.196;2022-12-11T06:08:52;16.42;;;6.93;;
71665;SDS011;59503;53.486;10.196;2022-12-11T06:11:19;17.08;;;6.40;;
71665;SDS011;59503;53.486;10.196;2022-12-11T06:13:46;18.38;;;6.75;;
71665;SDS011;59503;53.486;10.196;2022-12-11T06:16:12;20.23;;;6.87;;
71665;SDS011;59503;53.486;10.196;2022-12-11T06:18:39;16.33;;;6.63;;
71665;SDS011;59503;53.486;10.196;2022-12-11T06:23:39;20.55;;;7.20;;
71665;SDS011;59503;53.486;10.196;2022-12-11T06:26:05;21.08;;;7.38;;
71665;SDS011;59503;53.486;10.196;2022-12-11T06:28:31;17.98;;;6.63;;
71665;SDS011;59503;53.486;10.196;2022-12-11T06:30:57;16.73;;;6.47;;
71665;SDS011;59503;53.486;10.196;2022-12-11T06:33:24;21.92;;;7.10;;
71665;SDS011;59503;53.486;10.196;2022-12-11T06:35:49;18.93;;;6.23;;
71665;SDS011;59503;53.486;10.196;2022-12-11T06:38:15;17.70;;;5.75;;
71665;SDS011;59503;53.486;10.196;2022-12-11T06:40:41;19.35;;;6.65;;
71665;SDS011;59503;53.486;10.196;2022-12-11T06:43:06;16.93;;;6.60;;
71665;SDS011;59503;53.486;10.196;2022-12-11T06:45:32;18.13;;;5.97;;
71665;SDS011;59503;53.486;10.196;2022-12-11T06:47:57;17.17;;;6.47;;
71665;SDS011;59503;53.486;10.196;2022-12-11T06:50:23;22.07;;;7.20;;
71665;SDS011;59503;53.486;10.196;2022-12-11T06:52:48;17.10;;;6.23;;
71665;SDS011;59503;53.486;10.196;2022-12-11T06:55:14;21.33;;;6.90;;
71665;SDS011;59503;53.486;10.196;2022-12-11T06:57:39;21.43;;;6.77;;
71665;SDS011;59503;53.486;10.196;2022-12-11T07:00:05;18.70;;;6.47;;
71665;SDS011;59503;53.486;10.196;2022-12-11T07:02:34;17.90;;;5.88;;
71665;SDS011;59503;53.486;10.196;2022-12-11T07:04:59;18.97;;;6.30;;
71665;SDS011;59503;53.486;10.196;2022-12-11T07:07:25;20.40;;;6.40;;
71665;SDS011;59503;53.486;10.196;2022-12-11T07:09:50;16.50;;;5.37;;
71665;SDS011;59503;53.486;10.196;2022-12-11T07:12:16;16.93;;;6.03;;
71665;SDS011;59503;53.486;10.196;2022-12-11T07:14:41;20.02;;;6.38;;
71665;SDS011;59503;53.486;10.196;2022-12-11T07:17:07;17.80;;;6.27;;
71665;SDS011;59503;53.486;10.196;2022-12-11T07:19:32;24.03;;;7.83;;
71665;SDS011;59503;53.486;10.196;2022-12-11T07:21:58;25.42;;;7.55;;
71665;SDS011;59503;53.486;10.196;2022-12-11T07:24:23;32.23;;;8.93;;
71665;SDS011;59503;53.486;10.196;2022-12-11T07:26:49;23.20;;;8.07;;
71665;SDS011;59503;53.486;10.196;2022-12-11T07:29:14;21.27;;;7.18;;
71665;SDS011;59503;53.486;10.196;2022-12-11T07:31:40;20.53;;;6.37;;
71665;SDS011;59503;53.486;10.196;2022-12-11T07:34:05;26.27;;;8.93;;
71665;SDS011;59503;53.486;10.196;2022-12-11T07:36:31;28.95;;;9.35;;
71665;SDS011;59503;53.486;10.196;2022-12-11T07:38:58;24.57;;;7.67;;
71665;SDS011;59503;53.486;10.196;2022-12-11T07:41:25;25.52;;;7.95;;
71665;SDS011;59503;53.486;10.196;2022-12-11T07:43:52;23.83;;;7.68;;
71665;SDS011;59503;53.486;10.196;2022-12-11T07:46:19;23.88;;;8.15;;
71665;SDS011;59503;53.486;10.196;2022-12-11T07:48:46;23.65;;;7.20;;
71665;SDS011;59503;53.486;10.196;2022-12-11T07:51:14;27.53;;;7.70;;
71665;SDS011;59503;53.486;10.196;2022-12-11T07:53:46;22.95;;;7.72;;
71665;SDS011;59503;53.486;10.196;2022-12-11T07:56:13;24.75;;;7.78;;
71665;SDS011;59503;53.486;10.196;2022-12-11T07:58:39;23.58;;;6.82;;
71665;SDS011;59503;53.486;10.196;2022-12-11T08:01:09;21.73;;;7.30;;
71665;SDS011;59503;53.486;10.196;2022-12-11T08:03:40;21.88;;;6.75;;
71665;SDS011;59503;53.486;10.196;2022-12-11T08:06:06;20.85;;;7.43;;
71665;SDS011;59503;53.486;10.196;2022-12-11T08:08:32;24.05;;;8.43;;
71665;SDS011;59503;53.486;10.196;2022-12-11T08:11:01;26.07;;;7.83;;
71665;SDS011;59503;53.486;10.196;2022-12-11T08:13:30;23.45;;;7.63;;
71665;SDS011;59503;53.486;10.196;2022-12-11T08:15:56;28.07;;;8.00;;
71665;SDS011;59503;53.486;10.196;2022-12-11T08:18:21;25.30;;;8.70;;
71665;SDS011;59503;53.486;10.196;2022-12-11T08:20:47;23.83;;;7.90;;
71665;SDS011;59503;53.486;10.196;2022-12-11T08:23:12;27.03;;;8.23;;
71665;SDS011;59503;53.486;10.196;2022-12-11T08:25:38;22.58;;;7.85;;
71665;SDS011;59503;53.486;10.196;2022-12-11T08:28:03;25.73;;;8.43;;
71665;SDS011;59503;53.486;10.196;2022-12-11T08:30:29;23.10;;;7.40;;
71665;SDS011;59503;53.486;10.196;2022-12-11T08:32:54;26.15;;;9.50;;
71665;SDS011;59503;53.486;10.196;2022-12-11T08:35:19;33.83;;;10.50;;
71665;SDS011;59503;53.486;10.196;2022-12-11T08:37:45;41.87;;;13.77;;
71665;SDS011;59503;53.486;10.196;2022-12-11T08:40:11;31.35;;;11.57;;
71665;SDS011;59503;53.486;10.196;2022-12-11T08:42:37;26.67;;;10.13;;
71665;SDS011;59503;53.486;10.196;2022-12-11T08:45:03;26.90;;;10.38;;
71665;SDS011;59503;53.486;10.196;2022-12-11T08:47:28;25.75;;;9.35;;
71665;SDS011;59503;53.486;10.196;2022-12-11T08:49:54;26.83;;;10.27;;
71665;SDS011;59503;53.486;10.196;2022-12-11T08:52:20;27.17;;;9.15;;
71665;SDS011;59503;53.486;10.196;2022-12-11T08:54:46;27.15;;;9.80;;
71665;SDS011;59503;53.486;10.196;2022-12-11T08:57:13;23.73;;;8.33;;
71665;SDS011;59503;53.486;10.196;2022-12-11T08:59:39;32.50;;;9.68;;
71665;SDS011;59503;53.486;10.196;2022-12-11T09:02:04;24.60;;;9.43;;
71665;SDS011;59503;53.486;10.196;2022-12-11T09:04:30;26.63;;;8.13;;
71665;SDS011;59503;53.486;10.196;2022-12-11T09:06:55;24.33;;;8.87;;
71665;SDS011;59503;53.486;10.196;2022-12-11T09:09:21;25.73;;;8.65;;
71665;SDS011;59503;53.486;10.196;2022-12-11T09:11:47;23.87;;;8.10;;
71665;SDS011;59503;53.486;10.196;2022-12-11T09:14:13;21.90;;;7.45;;
71665;SDS011;59503;53.486;10.196;2022-12-11T09:16:40;21.80;;;9.30;;
71665;SDS011;59503;53.486;10.196;2022-12-11T09:19:06;18.43;;;7.20;;
71665;SDS011;59503;53.486;10.196;2022-12-11T09:21:35;21.05;;;8.90;;
71665;SDS011;59503;53.486;10.196;2022-12-11T09:24:00;22.80;;;9.23;;
71665;SDS011;59503;53.486;10.196;2022-12-11T09:26:27;23.02;;;10.23;;
71665;SDS011;59503;53.486;10.196;2022-12-11T09:28:53;23.70;;;9.38;;
71665;SDS011;59503;53.486;10.196;2022-12-11T09:31:20;20.07;;;7.10;;
71665;SDS011;59503;53.486;10.196;2022-12-11T09:33:52;21.10;;;7.22;;
71665;SDS011;59503;53.486;10.196;2022-12-11T09:36:20;18.95;;;6.90;;
71665;SDS011;59503;53.486;10.196;2022-12-11T09:38:46;17.50;;;6.87;;
71665;SDS011;59503;53.486;10.196;2022-12-11T09:46:24;19.63;;;5.97;;
71665;SDS011;59503;53.486;10.196;2022-12-11T09:48:50;15.63;;;6.73;;
71665;SDS011;59503;53.486;10.196;2022-12-11T09:51:20;18.83;;;6.90;;
71665;SDS011;59503;53.486;10.196;2022-12-11T09:53:47;16.25;;;6.28;;
71665;SDS011;59503;53.486;10.196;2022-12-11T09:56:15;19.05;;;6.88;;
71665;SDS011;59503;53.486;10.196;2022-12-11T10:06:57;16.73;;;6.33;;
71665;SDS011;59503;53.486;10.196;2022-12-11T10:17:38;16.48;;;7.30;;
71665;SDS011;59503;53.486;10.196;2022-12-11T10:20:22;20.00;;;7.50;;
71665;SDS011;59503;53.486;10.196;2022-12-11T10:22:49;13.00;;;5.03;;
71665;SDS011;59503;53.486;10.196;2022-12-11T10:25:26;17.80;;;6.18;;
71665;SDS011;59503;53.486;10.196;2022-12-11T10:27:55;14.38;;;5.78;;
71665;SDS011;59503;53.486;10.196;2022-12-11T10:30:22;16.70;;;5.70;;
71665;SDS011;59503;53.486;10.196;2022-12-11T10:35:26;13.38;;;5.20;;
71665;SDS011;59503;53.486;10.196;2022-12-11T10:38:08;13.15;;;5.40;;
71665;SDS011;59503;53.486;10.196;2022-12-11T10:40:39;13.80;;;5.40;;
71665;SDS011;59503;53.486;10.196;2022-12-11T10:43:08;12.25;;;4.80;;
71665;SDS011;59503;53.486;10.196;2022-12-11T10:45:34;16.37;;;5.20;;
71665;SDS011;59503;53.486;10.196;2022-12-11T10:48:05;13.07;;;5.45;;
71665;SDS011;59503;53.486;10.196;2022-12-11T10:50:34;14.77;;;5.10;;
71665;SDS011;59503;53.486;10.196;2022-12-11T10:53:01;12.45;;;4.90;;
71665;SDS011;59503;53.486;10.196;2022-12-11T10:55:32;12.40;;;4.33;;
71665;SDS011;59503;53.486;10.196;2022-12-11T10:58:11;11.60;;;4.53;;
71665;SDS011;59503;53.486;10.196;2022-12-11T11:00:42;13.18;;;4.60;;
71665;SDS011;59503;53.486;10.196;2022-12-11T11:03:22;20.77;;;5.27;;
71665;SDS011;59503;53.486;10.196;2022-12-11T11:06:00;12.20;;;5.32;;
71665;SDS011;59503;53.486;10.196;2022-12-11T11:08:44;17.63;;;5.22;;
71665;SDS011;59503;53.486;10.196;2022-12-11T11:14:39;13.40;;;4.83;;
71665;SDS011;59503;53.486;10.196;2022-12-11T11:17:04;10.95;;;5.00;;
71665;SDS011;59503;53.486;10.196;2022-12-11T11:19:34;12.52;;;5.22;;
71665;SDS011;59503;53.486;10.196;2022-12-11T11:22:03;12.85;;;5.20;;
71665;SDS011;59503;53.486;10.196;2022-12-11T11:24:35;13.40;;;5.43;;
71665;SDS011;59503;53.486;10.196;2022-12-11T11:27:11;14.82;;;6.22;;
71665;SDS011;59503;53.486;10.196;2022-12-11T11:29:46;18.80;;;5.45;;
71665;SDS011;59503;53.486;10.196;2022-12-11T11:32:33;11.98;;;4.80;;
71665;SDS011;59503;53.486;10.196;2022-12-11T11:35:25;13.73;;;5.27;;
71665;SDS011;59503;53.486;10.196;2022-12-11T11:37:56;14.90;;;5.90;;
71665;SDS011;59503;53.486;10.196;2022-12-11T11:40:30;13.48;;;5.63;;
71665;SDS011;59503;53.486;10.196;2022-12-11T11:50:00;12.10;;;5.33;;
71665;SDS011;59503;53.486;10.196;2022-12-11T11:52:52;14.32;;;5.20;;
71665;SDS011;59503;53.486;10.196;2022-12-11T11:55:37;11.90;;;4.95;;
71665;SDS011;59503;53.486;10.196;2022-12-11T11:58:15;13.48;;;4.95;;
71665;SDS011;59503;53.486;10.196;2022-12-11T12:00:46;13.02;;;5.25;;
71665;SDS011;59503;53.486;10.196;2022-12-11T12:03:14;13.53;;;5.40;;
71665;SDS011;59503;53.486;10.196;2022-12-11T12:08:37;14.00;;;6.03;;
71665;SDS011;59503;53.486;10.196;2022-12-11T12:13:52;17.58;;;5.60;;
71665;SDS011;59503;53.486;10.196;2022-12-11T12:16:32;15.67;;;5.73;;
71665;SDS011;59503;53.486;10.196;2022-12-11T12:19:12;19.30;;;6.22;;
71665;SDS011;59503;53.486;10.196;2022-12-11T12:21:39;15.93;;;6.13;;
71665;SDS011;59503;53.486;10.196;2022-12-11T12:24:35;14.40;;;5.05;;
71665;SDS011;59503;53.486;10.196;2022-12-11T12:27:27;13.48;;;5.18;;
71665;SDS011;59503;53.486;10.196;2022-12-11T12:30:34;15.70;;;5.67;;
71665;SDS011;59503;53.486;10.196;2022-12-11T12:36:33;14.43;;;5.53;;
71665;SDS011;59503;53.486;10.196;2022-12-11T12:44:28;27.30;;;7.10;;
71665;SDS011;59503;53.486;10.196;2022-12-11T12:47:09;15.73;;;6.65;;
71665;SDS011;59503;53.486;10.196;2022-12-11T12:49:40;16.67;;;6.63;;
71665;SDS011;59503;53.486;10.196;2022-12-11T12:54:41;16.92;;;6.82;;
71665;SDS011;59503;53.486;10.196;2022-12-11T12:57:30;18.13;;;6.50;;
71665;SDS011;59503;53.486;10.196;2022-12-11T12:59:57;17.35;;;6.72;;
71665;SDS011;59503;53.486;10.196;2022-12-11T13:02:22;14.17;;;5.80;;
71665;SDS011;59503;53.486;10.196;2022-12-11T13:04:54;17.20;;;6.90;;
71665;SDS011;59503;53.486;10.196;2022-12-11T13:07:25;15.73;;;6.32;;
71665;SDS011;59503;53.486;10.196;2022-12-11T13:09:58;20.92;;;7.70;;
71665;SDS011;59503;53.486;10.196;2022-12-11T13:12:42;18.75;;;7.10;;
71665;SDS011;59503;53.486;10.196;2022-12-11T13:17:56;20.85;;;6.28;;
71665;SDS011;59503;53.486;10.196;2022-12-11T13:20:24;21.90;;;7.20;;
71665;SDS011;59503;53.486;10.196;2022-12-11T13:25:51;16.25;;;6.07;;
71665;SDS011;59503;53.486;10.196;2022-12-11T13:28:26;18.10;;;7.47;;
71665;SDS011;59503;53.486;10.196;2022-12-11T13:33:50;16.93;;;6.27;;
71665;SDS011;59503;53.486;10.196;2022-12-11T13:41:42;18.88;;;6.60;;
71665;SDS011;59503;53.486;10.196;2022-12-11T13:44:15;15.90;;;6.50;;
71665;SDS011;59503;53.486;10.196;2022-12-11T13:46:47;15.43;;;6.45;;
71665;SDS011;59503;53.486;10.196;2022-12-11T13:49:24;17.58;;;6.22;;
71665;SDS011;59503;53.486;10.196;2022-12-11T13:52:04;16.10;;;6.27;;
71665;SDS011;59503;53.486;10.196;2022-12-11T13:54:31;16.45;;;6.55;;
71665;SDS011;59503;53.486;10.196;2022-12-11T13:57:03;18.58;;;7.18;;
71665;SDS011;59503;53.486;10.196;2022-12-11T13:59:41;18.63;;;7.13;;
71665;SDS011;59503;53.486;10.196;2022-12-11T14:04:46;18.13;;;7.00;;
71665;SDS011;59503;53.486;10.196;2022-12-11T14:07:14;14.43;;;6.25;;
71665;SDS011;59503;53.486;10.196;2022-12-11T14:09:44;15.32;;;6.40;;
71665;SDS011;59503;53.486;10.196;2022-12-11T14:12:17;17.97;;;6.93;;
71665;SDS011;59503;53.486;10.196;2022-12-11T14:14:55;21.08;;;7.13;;
71665;SDS011;59503;53.486;10.196;2022-12-11T14:17:24;21.08;;;7.95;;
71665;SDS011;59503;53.486;10.196;2022-12-11T14:19:53;20.08;;;7.07;;
71665;SDS011;59503;53.486;10.196;2022-12-11T14:22:22;17.20;;;6.45;;
71665;SDS011;59503;53.486;10.196;2022-12-11T14:24:51;18.43;;;6.83;;
71665;SDS011;59503;53.486;10.196;2022-12-11T14:27:18;18.17;;;6.40;;
71665;SDS011;59503;53.486;10.196;2022-12-11T14:29:45;20.77;;;6.78;;
71665;SDS011;59503;53.486;10.196;2022-12-11T14:32:12;17.42;;;6.93;;
71665;SDS011;59503;53.486;10.196;2022-12-11T14:34:55;17.58;;;6.60;;
71665;SDS011;59503;53.486;10.196;2022-12-11T14:37:21;18.30;;;6.30;;
71665;SDS011;59503;53.486;10.196;2022-12-11T14:40:03;16.83;;;6.28;;
71665;SDS011;59503;53.486;10.196;2022-12-11T14:42:32;17.75;;;6.30;;
71665;SDS011;59503;53.486;10.196;2022-12-11T14:47:44;16.98;;;6.65;;
71665;SDS011;59503;53.486;10.196;2022-12-11T14:52:58;16.67;;;6.60;;
71665;SDS011;59503;53.486;10.196;2022-12-11T14:55:31;17.52;;;7.18;;
71665;SDS011;59503;53.486;10.196;2022-12-11T14:58:20;18.45;;;6.68;;
71665;SDS011;59503;53.486;10.196;2022-12-11T15:01:00;22.10;;;8.05;;
71665;SDS011;59503;53.486;10.196;2022-12-11T15:03:47;17.40;;;7.27;;
71665;SDS011;59503;53.486;10.196;2022-12-11T15:06:27;22.45;;;7.63;;
71665;SDS011;59503;53.486;10.196;2022-12-11T15:09:07;18.67;;;6.63;;
71665;SDS011;59503;53.486;10.196;2022-12-11T15:11:43;20.65;;;6.97;;
71665;SDS011;59503;53.486;10.196;2022-12-11T15:14:11;19.10;;;7.35;;
71665;SDS011;59503;53.486;10.196;2022-12-11T15:16:38;23.25;;;7.88;;
71665;SDS011;59503;53.486;10.196;2022-12-11T15:19:05;22.08;;;7.43;;
71665;SDS011;59503;53.486;10.196;2022-12-11T15:21:40;23.03;;;7.90;;
71665;SDS011;59503;53.486;10.196;2022-12-11T15:24:05;19.73;;;6.78;;
71665;SDS011;59503;53.486;10.196;2022-12-11T15:26:45;16.48;;;6.93;;
71665;SDS011;59503;53.486;10.196;2022-12-11T15:29:23;18.20;;;7.90;;
71665;SDS011;59503;53.486;10.196;2022-12-11T15:34:41;18.40;;;7.38;;
71665;SDS011;59503;53.486;10.196;2022-12-11T15:37:25;21.63;;;8.10;;
71665;SDS011;59503;53.486;10.196;2022-12-11T15:39:52;20.13;;;8.00;;
71665;SDS011;59503;53.486;10.196;2022-12-11T15:42:24;17.57;;;7.03;;
71665;SDS011;59503;53.486;10.196;2022-12-11T15:44:55;20.67;;;7.75;;
71665;SDS011;59503;53.486;10.196;2022-12-11T15:47:26;23.27;;;9.30;;
71665;SDS011;59503;53.486;10.196;2022-12-11T15:49:57;24.33;;;8.50;;
71665;SDS011;59503;53.486;10.196;2022-12-11T15:52:24;22.33;;;8.63;;
71665;SDS011;59503;53.486;10.196;2022-12-11T15:54:49;23.47;;;8.60;;
71665;SDS011;59503;53.486;10.196;2022-12-11T15:57:16;21.83;;;8.23;;
71665;SDS011;59503;53.486;10.196;2022-12-11T15:59:45;21.05;;;8.38;;
71665;SDS011;59503;53.486;10.196;2022-12-11T16:02:12;22.95;;;8.05;;
71665;SDS011;59503;53.486;10.196;2022-12-11T16:04:39;21.90;;;7.95;;
71665;SDS011;59503;53.486;10.196;2022-12-11T16:07:05;18.93;;;7.97;;
71665;SDS011;59503;53.486;10.196;2022-12-11T16:09:36;18.27;;;7.97;;
71665;SDS011;59503;53.486;10.196;2022-12-11T16:12:02;22.30;;;10.57;;